Search for airport 
image banner adimage banner adimage banner ad
image banner ad

S37 - Smoketown

Located in Smoketown, United States

ICAO - S37, IATA -

Data provided by Airmate  

General information

Coordinates: N40°2'30" W76°12'7"
Elevation is 370 feet MSL.
Magnetic variation is -11° East
View others Airports in Pennsylvania

Operational data

Special qualification required
Current time UTC:
Current local time:
Weather at : KLNS - Lancaster ( 12 km )
METAR: KLNS 092153Z 10008KT 10SM -RA SCT090 OVC110 11/05 A2987 RMK AO2 RAB39 SLP116 P0000 T01060050
TAF: KLNS 092126Z 0921/1018 12008KT P6SM -RA OVC035 FM100400 07007KT 6SM -RA OVC025 FM101000 31008KT P6SM OVC025 FM101500 33010G15KT P6SM OVC050
View NOTAMs / SUP AIP / TFR affecting this airport [VIEW]
Communications frequencies: [VIEW]

Runways:

RWY identifierQFULength (ft)Width (ft)SurfaceLDA (ft)
10275050ASPH
28275050ASPH

Airport contact information

Address: Smoketown United States

Other aviation service providers

Flight schools

Aero-Tech Services, Inc.

Aero-Tech Services, Inc.

Smoketown Helicopters

Smoketown Helicopters

Satellite view of S37